Huvudsida
METAR-TAF:

METAR-TAF

Flygplatser :

Abu Dhabis internationella flygplats

Abu Dhabi, Förenade Arabemiraten

latitud: 24-26N, longitud: 054-39E, höjd: 16 m

Aktuellt väderrapport

Denna rapport gjordes för 29 minuter sedan, klockan 19:00 UTC
Vind 7 kt från ost/nordost, varierande mellan nordost och syd/sydost
Temperatur 24°C
Fuktighet 44%
Tryck 1014 hPa
Sikt 10 km eller mer
Inga moln under 1 500 m eller inga cumulonimbus

METAR: OMAA 111900Z 06007KT 050V150 CAVOK 24/11 Q1014 NOSIG

Tid: 23:29 (19:29 UTC)

Väderprognos

Denna rapport gjordes för 2 timmar och 29 minuter sedan, klockan 17:00 UTC
Prognos gäller från 11 kl. 18 UTC till 13 kl. 00 UTC
Vind 9 kt från ost
Sikt 10 km eller mer
Inga moln under 1 500 m eller inga cumulonimbus
Blir
från 12 kl. 09 UTC till 12 kl. 11 UTC
Vind 11 kt från nord
Blir
från 12 kl. 17 UTC till 12 kl. 19 UTC
Vind 9 kt från ost

TAF: OMAA 111700Z 1118/1300 09009KT CAVOK BECMG 1209/1211 36011KT BECMG 1217/1219 10009KT

Aktuella väderrapporter och prognoser från 4000 flygplatser (METAR- och TAF-rapporter).

De tillgängliga stationerna syns som gula och röda prickar på kartan.

För musen över prickarna för att se namnen på stationerna.

Klicka sedan för att få väderrapporter och prognoser.

För att ändra kartan: Klicka på de gröna knapparna med ett svart kors på för att zooma in; den gröna knappen med ett streck på för att zooma ut; eller på de gröna pilarna för angränsande kartor.


METAR-TAF: